Douradina, Brazil
Current Conditions -  °F | °C
As of 11:00 PM on Friday 19 Dec 2014 (Local Time) from SBMG Reporting Station
Thunderstorm Thunderstorm  
Wind Chill: 28°   Ceiling: Unl
Heat Index: 31°   Visibility: 6mi
Dew Point: 22°   Wind: 3mph
Humidity: 70%   Direction: 360°N
Pressure: 29.77"   Gusts: NA
Location:  23.38°S, 53.29°W
Report Text: SBMG 200100Z 36003KT 9999 VCTS FEW050CB SCT080 28/22 Q1008
Loading
Personal Weather Stations






























Interactive Weather Map New forecast layout! Learn more

10-Day Weather Forecast

Advertisements
Track Severe Weather on mobile